Aviation Discussion

.AVIATION...ISSUED 1208 AM EDT SAT OCT 25 2014 //DISCUSSION... SKIES HAVE CLEARED OUT ACROSS THE TAF SITES...WHICH WILL ALLOW FOR SOME FOG TO DEVELOP OVERNIGHT...AS SOUTHWEST WINDS ARE VERY LIGHT AT THE MOMENT. BEFORE THE FOG IS ABLE TO GET DENSE OR DENSE FOR ANY EXTENDED PERIOD...LOOKING AT A RETURN OF MVFR/VFR CLOUDS AND AN INCREASE OF SOUTHWEST WINDS AHEAD OF A COLD FRONT BETWEEN 9-12Z. THE LOWER CLOUDS WILL THEN LIKELY PREVAIL THROUGH THE MORNING HOURS. HOWEVER...A GOOD DEAL OF DRYING WILL OCCUR DURING THE AFTERNOON HOURS...AS WESTERLY WINDS ALSO RAMP UP...WITH GUSTS LIKELY REACHING AND EXCEEDING 20 KNOTS. ONCE SKIES CLEAR OUT BY LATE IN THE DAY...SHOULD SEE MOSTLY CLEAR SKIES PERSIST TONIGHT. HOWEVER...COLD NORTHWEST FLOW WILL ATTEMPT TO SEND SOME LAKE INDUCED CLOUDS TOWARD THE AREA...MAINLY UP TOWARD MBS. //DTW THRESHOLD THREATS... * HIGH CONFIDENCE IN CEILINGS BELOW 5000 FEET 10-18Z. * LOW CONFIDENCE WIND GUSTS WILL EXCEED CROSSWIND THRESHOLDS THIS AFTERNOON.

KDTW 251135Z 2512/2618 23010KT P6SM SCT025 OVC040
TEMPO 2512/2513 3SM BR
FM251600 27014G22KT P6SM BKN025
FM251900 27015G24KT P6SM SKC
FM260000 28010KT P6SM SKC=

KDET 251135Z 2512/2612 23010KT P6SM SCT025 OVC040
TEMPO 2512/2513 5SM BR
FM251600 27014G22KT P6SM BKN025
FM251900 27015G24KT P6SM SKC
FM260000 28010KT P6SM SKC=

Cleveland Center Weather Service Unit (CWSU)
Mission:
Our main responsibility is to provide up to the minute weather information to FAA Supervisors and the ZOB Traffic Management Unit (TMU). Some of the products issued by the CWSU are the Center Weather Advisories (CWA) and the Meteorological Impact Statement (MIS). The CWA is an aviation weather warning for thunderstorms, severe icing or turbulence, and low IFR ceilings and visibility. The MIS is a 2-12 hour forecast for weather conditions, which are expected to impact ARTCC operations.
 
Operations:
The Cleveland Center Weather Service Unit (ZOB CWSU) is located at the Federal Aviation Administration (FAA) Air Route Traffic Control Center (ARTCC) in Oberlin, OH. Four National Weather Service meteorologists staff the office. Our hours of operation are from 6:00 A.M. to 9:30 P.M. daily.

Web Site Owner:
NOAA National Weather Service
Cleveland ARTCC Attn:CWSU
326 East Lorain Street
Oberlin, OH 44074
Web Administrator:Webmaster
Page last modified: 23 Feb 2013
Disclaimer
Credits
Glossary
Privacy Policy
About Our Organization
Career Opportunities